<?xml version="1.0" encoding="UTF-8" standalone="no" ?>
<gpx xmlns="http://www.topografix.com/GPX/1/1" xmlns:xsi="http://www.w3.org/2001/XMLSchema-instance" xsi:schemaLocation="http://www.topografix.com/GPX/1/1 http://www.topografix.com/GPX/1/1/gpx.xsd" version="1.1" creator="VisuGPX - https://www.visugpx.com">
  <metadata>
    <name>marche d'approche canyon Mas Calsan</name>
    <desc><![CDATA[Bonne marche d'approche mais le retour est bien plus facile.
Soyez courtois avec les riverains ! ]]></desc>
  </metadata>
  <trk>
    <name><![CDATA[2016-04-16 08:56 mes calsan 
]]></name>
    <desc><![CDATA[<p>Temps de départ: 04/16/2016 08:56</p><p>Temps d'arrivée: 04/16/2016 09:37</p><p>Distance: 1,9 km (00:41)</p><p>Temps déplacement: 00:33</p><p>Vitesse moyenne: 2,8 km/h</p><p>Vitesse moyenne mouvement: 3,5 km/h</p><p>Vitess Max.: 6,2km/h</p><p>Altitude minimale: 299 m</p><p>Altitude maximale: 497 m</p><p>Vitesse d'élévation: 381,1 m/h</p><p>Vitesse de descente: -509,3 m/h</p><p>Gain Altitude: 205 m</p><p>Perte Altitude: -74 m</p><p>Temps d'élévation: 00:32</p><p>Temps de descente: 00:08</p><hr align="center" width="480" style="height: 2px; width: 517px"/>]]></desc>
    <trkseg>
      <trkpt lat="42.47317" lon="2.71036">
        <ele>299.16</ele>
        <time>2016-04-16T06:56:22Z</time>
      </trkpt>
      <trkpt lat="42.47299" lon="2.7103">
        <ele>299.13</ele>
        <time>2016-04-16T06:56:38Z</time>
      </trkpt>
      <trkpt lat="42.4728" lon="2.71031">
        <ele>302.89</ele>
        <time>2016-04-16T06:56:52Z</time>
      </trkpt>
      <trkpt lat="42.4729" lon="2.71052">
        <ele>299.94</ele>
        <time>2016-04-16T06:57:35Z</time>
      </trkpt>
      <trkpt lat="42.47303" lon="2.7107">
        <ele>301.93</ele>
        <time>2016-04-16T06:57:50Z</time>
      </trkpt>
      <trkpt lat="42.47309" lon="2.71093">
        <ele>302.17</ele>
        <time>2016-04-16T06:58:05Z</time>
      </trkpt>
      <trkpt lat="42.47313" lon="2.71117">
        <ele>304.73</ele>
        <time>2016-04-16T06:58:20Z</time>
      </trkpt>
      <trkpt lat="42.47299" lon="2.71101">
        <ele>303.13</ele>
        <time>2016-04-16T06:59:08Z</time>
      </trkpt>
      <trkpt lat="42.47283" lon="2.71087">
        <ele>309.89</ele>
        <time>2016-04-16T06:59:28Z</time>
      </trkpt>
      <trkpt lat="42.47265" lon="2.71085">
        <ele>310.17</ele>
        <time>2016-04-16T06:59:44Z</time>
      </trkpt>
      <trkpt lat="42.47248" lon="2.71077">
        <ele>313.29</ele>
        <time>2016-04-16T07:00:00Z</time>
      </trkpt>
      <trkpt lat="42.47231" lon="2.71068">
        <ele>307.89</ele>
        <time>2016-04-16T07:00:12Z</time>
      </trkpt>
      <trkpt lat="42.47214" lon="2.71073">
        <ele>307.09</ele>
        <time>2016-04-16T07:00:28Z</time>
      </trkpt>
      <trkpt lat="42.47195" lon="2.71073">
        <ele>308.92</ele>
        <time>2016-04-16T07:00:45Z</time>
      </trkpt>
      <trkpt lat="42.47177" lon="2.71065">
        <ele>310.13</ele>
        <time>2016-04-16T07:01:01Z</time>
      </trkpt>
      <trkpt lat="42.47161" lon="2.71055">
        <ele>310.9</ele>
        <time>2016-04-16T07:01:17Z</time>
      </trkpt>
      <trkpt lat="42.47145" lon="2.71042">
        <ele>318.09</ele>
        <time>2016-04-16T07:01:36Z</time>
      </trkpt>
      <trkpt lat="42.4713" lon="2.71026">
        <ele>316.17</ele>
        <time>2016-04-16T07:01:51Z</time>
      </trkpt>
      <trkpt lat="42.4712" lon="2.71005">
        <ele>314.34</ele>
        <time>2016-04-16T07:02:12Z</time>
      </trkpt>
      <trkpt lat="42.47117" lon="2.7098">
        <ele>317.25</ele>
        <time>2016-04-16T07:02:25Z</time>
      </trkpt>
      <trkpt lat="42.47121" lon="2.70955">
        <ele>320.08</ele>
        <time>2016-04-16T07:02:39Z</time>
      </trkpt>
      <trkpt lat="42.47125" lon="2.70932">
        <ele>329.08</ele>
        <time>2016-04-16T07:02:54Z</time>
      </trkpt>
      <trkpt lat="42.47107" lon="2.70934">
        <ele>337.1</ele>
        <time>2016-04-16T07:03:27Z</time>
      </trkpt>
      <trkpt lat="42.47097" lon="2.70955">
        <ele>345.12</ele>
        <time>2016-04-16T07:03:48Z</time>
      </trkpt>
      <trkpt lat="42.47091" lon="2.70978">
        <ele>347.09</ele>
        <time>2016-04-16T07:04:09Z</time>
      </trkpt>
      <trkpt lat="42.47087" lon="2.71003">
        <ele>349.12</ele>
        <time>2016-04-16T07:04:24Z</time>
      </trkpt>
      <trkpt lat="42.47085" lon="2.71028">
        <ele>350.73</ele>
        <time>2016-04-16T07:04:45Z</time>
      </trkpt>
      <trkpt lat="42.47088" lon="2.71053">
        <ele>353.97</ele>
        <time>2016-04-16T07:05:03Z</time>
      </trkpt>
      <trkpt lat="42.47103" lon="2.71066">
        <ele>344.17</ele>
        <time>2016-04-16T07:05:25Z</time>
      </trkpt>
      <trkpt lat="42.4712" lon="2.71075">
        <ele>348.92</ele>
        <time>2016-04-16T07:05:41Z</time>
      </trkpt>
      <trkpt lat="42.47127" lon="2.71099">
        <ele>356.13</ele>
        <time>2016-04-16T07:05:59Z</time>
      </trkpt>
      <trkpt lat="42.47111" lon="2.7111">
        <ele>358.13</ele>
        <time>2016-04-16T07:06:20Z</time>
      </trkpt>
      <trkpt lat="42.47093" lon="2.71104">
        <ele>356.14</ele>
        <time>2016-04-16T07:06:37Z</time>
      </trkpt>
      <trkpt lat="42.47075" lon="2.71107">
        <ele>360.28</ele>
        <time>2016-04-16T07:07:16Z</time>
      </trkpt>
      <trkpt lat="42.47069" lon="2.71131">
        <ele>368.13</ele>
        <time>2016-04-16T07:09:55Z</time>
      </trkpt>
      <trkpt lat="42.47063" lon="2.71155">
        <ele>373.17</ele>
        <time>2016-04-16T07:10:09Z</time>
      </trkpt>
      <trkpt lat="42.47051" lon="2.71174">
        <ele>374.13</ele>
        <time>2016-04-16T07:10:30Z</time>
      </trkpt>
      <trkpt lat="42.47058" lon="2.71197">
        <ele>377.13</ele>
        <time>2016-04-16T07:10:53Z</time>
      </trkpt>
      <trkpt lat="42.47067" lon="2.7122">
        <ele>370.49</ele>
        <time>2016-04-16T07:11:15Z</time>
      </trkpt>
      <trkpt lat="42.4707" lon="2.71244">
        <ele>379.12</ele>
        <time>2016-04-16T07:11:39Z</time>
      </trkpt>
      <trkpt lat="42.47069" lon="2.71269">
        <ele>380.1</ele>
        <time>2016-04-16T07:12:00Z</time>
      </trkpt>
      <trkpt lat="42.4706" lon="2.7129">
        <ele>387.13</ele>
        <time>2016-04-16T07:12:25Z</time>
      </trkpt>
      <trkpt lat="42.47043" lon="2.71297">
        <ele>401.13</ele>
        <time>2016-04-16T07:13:23Z</time>
      </trkpt>
      <trkpt lat="42.47025" lon="2.71305">
        <ele>407.92</ele>
        <time>2016-04-16T07:14:04Z</time>
      </trkpt>
      <trkpt lat="42.47008" lon="2.71314">
        <ele>416.12</ele>
        <time>2016-04-16T07:15:50Z</time>
      </trkpt>
      <trkpt lat="42.46993" lon="2.71326">
        <ele>418.17</ele>
        <time>2016-04-16T07:16:13Z</time>
      </trkpt>
      <trkpt lat="42.46981" lon="2.71346">
        <ele>419.1</ele>
        <time>2016-04-16T07:16:34Z</time>
      </trkpt>
      <trkpt lat="42.46967" lon="2.71363">
        <ele>422.13</ele>
        <time>2016-04-16T07:16:55Z</time>
      </trkpt>
      <trkpt lat="42.46955" lon="2.71381">
        <ele>429.12</ele>
        <time>2016-04-16T07:17:18Z</time>
      </trkpt>
      <trkpt lat="42.4694" lon="2.71395">
        <ele>432.13</ele>
        <time>2016-04-16T07:17:42Z</time>
      </trkpt>
      <trkpt lat="42.46929" lon="2.71415">
        <ele>436.33</ele>
        <time>2016-04-16T07:18:06Z</time>
      </trkpt>
      <trkpt lat="42.46913" lon="2.71428">
        <ele>442.12</ele>
        <time>2016-04-16T07:18:32Z</time>
      </trkpt>
      <trkpt lat="42.46901" lon="2.71446">
        <ele>445.93</ele>
        <time>2016-04-16T07:19:05Z</time>
      </trkpt>
      <trkpt lat="42.46901" lon="2.71471">
        <ele>453.13</ele>
        <time>2016-04-16T07:20:27Z</time>
      </trkpt>
      <trkpt lat="42.46899" lon="2.71497">
        <ele>460.93</ele>
        <time>2016-04-16T07:20:49Z</time>
      </trkpt>
      <trkpt lat="42.46898" lon="2.71522">
        <ele>466.13</ele>
        <time>2016-04-16T07:21:25Z</time>
      </trkpt>
      <trkpt lat="42.4688" lon="2.7153">
        <ele>470.94</ele>
        <time>2016-04-16T07:22:32Z</time>
      </trkpt>
      <trkpt lat="42.46864" lon="2.71515">
        <ele>480.13</ele>
        <time>2016-04-16T07:23:23Z</time>
      </trkpt>
      <trkpt lat="42.46849" lon="2.71528">
        <ele>486.09</ele>
        <time>2016-04-16T07:25:25Z</time>
      </trkpt>
      <trkpt lat="42.46831" lon="2.71533">
        <ele>489.96</ele>
        <time>2016-04-16T07:25:48Z</time>
      </trkpt>
      <trkpt lat="42.46814" lon="2.71541">
        <ele>487.09</ele>
        <time>2016-04-16T07:26:47Z</time>
      </trkpt>
      <trkpt lat="42.46806" lon="2.71564">
        <ele>490.97</ele>
        <time>2016-04-16T07:27:58Z</time>
      </trkpt>
      <trkpt lat="42.46793" lon="2.71583">
        <ele>496.12</ele>
        <time>2016-04-16T07:28:12Z</time>
      </trkpt>
      <trkpt lat="42.46781" lon="2.71601">
        <ele>495.92</ele>
        <time>2016-04-16T07:28:34Z</time>
      </trkpt>
      <trkpt lat="42.46769" lon="2.71619">
        <ele>494.2</ele>
        <time>2016-04-16T07:28:51Z</time>
      </trkpt>
      <trkpt lat="42.46756" lon="2.71638">
        <ele>497.16</ele>
        <time>2016-04-16T07:29:05Z</time>
      </trkpt>
      <trkpt lat="42.46747" lon="2.71661">
        <ele>493.93</ele>
        <time>2016-04-16T07:29:19Z</time>
      </trkpt>
      <trkpt lat="42.46738" lon="2.71683">
        <ele>492.89</ele>
        <time>2016-04-16T07:29:37Z</time>
      </trkpt>
      <trkpt lat="42.46731" lon="2.71706">
        <ele>492.93</ele>
        <time>2016-04-16T07:29:52Z</time>
      </trkpt>
      <trkpt lat="42.46723" lon="2.71729">
        <ele>488.96</ele>
        <time>2016-04-16T07:30:14Z</time>
      </trkpt>
      <trkpt lat="42.46713" lon="2.7175">
        <ele>486.18</ele>
        <time>2016-04-16T07:30:32Z</time>
      </trkpt>
      <trkpt lat="42.46707" lon="2.71775">
        <ele>475.73</ele>
        <time>2016-04-16T07:30:56Z</time>
      </trkpt>
      <trkpt lat="42.46708" lon="2.71799">
        <ele>471.98</ele>
        <time>2016-04-16T07:31:13Z</time>
      </trkpt>
      <trkpt lat="42.46708" lon="2.71824">
        <ele>460.15</ele>
        <time>2016-04-16T07:31:33Z</time>
      </trkpt>
      <trkpt lat="42.46696" lon="2.71846">
        <ele>455.34</ele>
        <time>2016-04-16T07:32:03Z</time>
      </trkpt>
      <trkpt lat="42.46694" lon="2.71871">
        <ele>455.13</ele>
        <time>2016-04-16T07:32:18Z</time>
      </trkpt>
      <trkpt lat="42.46677" lon="2.71885">
        <ele>453.37</ele>
        <time>2016-04-16T07:32:35Z</time>
      </trkpt>
      <trkpt lat="42.46659" lon="2.71889">
        <ele>459.16</ele>
        <time>2016-04-16T07:33:07Z</time>
      </trkpt>
      <trkpt lat="42.46641" lon="2.71894">
        <ele>452.36</ele>
        <time>2016-04-16T07:33:19Z</time>
      </trkpt>
      <trkpt lat="42.46622" lon="2.71902">
        <ele>451.3</ele>
        <time>2016-04-16T07:33:37Z</time>
      </trkpt>
      <trkpt lat="42.46609" lon="2.71919">
        <ele>447.33</ele>
        <time>2016-04-16T07:33:53Z</time>
      </trkpt>
      <trkpt lat="42.46592" lon="2.71928">
        <ele>453.12</ele>
        <time>2016-04-16T07:34:17Z</time>
      </trkpt>
      <trkpt lat="42.46576" lon="2.71913">
        <ele>454.13</ele>
        <time>2016-04-16T07:34:33Z</time>
      </trkpt>
      <trkpt lat="42.46557" lon="2.71907">
        <ele>456.96</ele>
        <time>2016-04-16T07:34:48Z</time>
      </trkpt>
      <trkpt lat="42.46549" lon="2.71883">
        <ele>453.93</ele>
        <time>2016-04-16T07:35:05Z</time>
      </trkpt>
      <trkpt lat="42.46531" lon="2.71886">
        <ele>463.09</ele>
        <time>2016-04-16T07:35:21Z</time>
      </trkpt>
      <trkpt lat="42.46512" lon="2.71881">
        <ele>454.13</ele>
        <time>2016-04-16T07:35:35Z</time>
      </trkpt>
      <trkpt lat="42.46493" lon="2.71886">
        <ele>447.78</ele>
        <time>2016-04-16T07:35:53Z</time>
      </trkpt>
      <trkpt lat="42.46483" lon="2.71907">
        <ele>447.36</ele>
        <time>2016-04-16T07:36:08Z</time>
      </trkpt>
      <trkpt lat="42.46479" lon="2.71933">
        <ele>443.37</ele>
        <time>2016-04-16T07:36:28Z</time>
      </trkpt>
      <trkpt lat="42.46492" lon="2.71951">
        <ele>437.33</ele>
        <time>2016-04-16T07:36:51Z</time>
      </trkpt>
      <trkpt lat="42.46511" lon="2.71957">
        <ele>434.86</ele>
        <time>2016-04-16T07:37:10Z</time>
      </trkpt>
      <trkpt lat="42.4653" lon="2.7196">
        <ele>430.19</ele>
        <time>2016-04-16T07:37:31Z</time>
      </trkpt>
      <trkpt lat="42.4655" lon="2.71966">
        <ele>430.14</ele>
        <time>2016-04-16T07:37:47Z</time>
      </trkpt>
    </trkseg>
  </trk>
</gpx>